메인 페이지
METAR-TAF:

METAR-TAF

공항 :

Estherville Municipal Airport

Estherville, 아이오와, 미국

위도: 43-24-04N, 경도: 094-44-50W, 고도: 401m

현재 날씨관측

예보는 19분 전, 01:52시(UTC)에 발표되었습니다.
북북서17kt, 순간 최대 풍속 25kt
온도 11°C
습도 66%
기압 1015 hPa
시정: 16.1km
고도 4600ft 상공 흐림

METAR: KEST 290152Z AUTO 33017G25KT 10SM OVC046 11/05 A2998 RMK AO2 PK WND 34026/0119 SLP156 T01060050

시각: 21:11 (02:11 UTC)


TAF: 누락

4,000개 이상의 공항 관측 자료 및 예보 (METAR 및 TAF 보고).

지도상에서 검색 가능한 기상관측소가 노란 점과 빨간 점으로 표시되어 있습니다.

기상관측소 명을 보려면 표시 위로 마우스를 이동하세요.

날씨 관측과 예보를 보려면 클릭하세요.

지도 변경 : 확대하려면 엑스 표시가 있는 녹색 버튼, 축소하려면 빼기 표시가 있는 녹색 버튼, 다음 페이지의 지도를 보려면 녹색 화살표를 클릭하세요.


METAR-TAF: